Time;durP1;ratioP1;P1;durP2;ratioP2;P2;SDS_P1;SDS_P2;PMS_P1;PMS_P2;Temp;Humidity;BMP_temperature;BMP_pressure;BME280_temperature;BME280_humidity;BME280_pressure;Samples;Min_cycle;Max_cycle;Signal;HPM_P1;HPM_P2
2023/08/13 00:01:42;;;;;;;4.23;3.23;;;24.70;84.30;;;;;;5043381;28;20200;-61
2023/08/13 00:04:09;;;;;;;3.73;3.30;;;24.70;84.40;;;;;;5040087;28;20239;-61
2023/08/13 00:06:36;;;;;;;7.07;4.20;;;24.70;84.60;;;;;;5042740;28;20212;-60
2023/08/13 00:09:04;;;;;;;6.23;3.63;;;24.60;84.80;;;;;;5046138;28;20226;-60
2023/08/13 00:11:32;;;;;;;4.03;3.37;;;24.70;85.00;;;;;;5041972;28;20649;-61
2023/08/13 00:13:59;;;;;;;4.90;3.37;;;24.70;85.00;;;;;;5042794;28;20194;-60
2023/08/13 00:16:26;;;;;;;6.53;3.37;;;24.60;85.10;;;;;;5043218;28;20226;-60
2023/08/13 00:18:53;;;;;;;3.60;3.30;;;24.60;85.30;;;;;;5040092;28;20199;-60
2023/08/13 00:21:20;;;;;;;3.90;3.60;;;24.60;85.40;;;;;;5041431;28;20200;-60
2023/08/13 00:23:48;;;;;;;4.83;3.23;;;24.60;85.50;;;;;;5039044;28;20202;-60
2023/08/13 00:26:16;;;;;;;3.63;3.33;;;24.60;85.90;;;;;;5043013;28;20227;-61
2023/08/13 00:28:43;;;;;;;3.33;2.93;;;24.50;86.00;;;;;;5044964;28;20214;-60
2023/08/13 00:31:10;;;;;;;4.30;3.33;;;24.50;86.20;;;;;;5043157;28;20220;-61
2023/08/13 00:33:37;;;;;;;4.93;3.30;;;24.50;86.40;;;;;;5048416;28;20591;-60
2023/08/13 00:36:04;;;;;;;3.43;3.13;;;24.50;86.40;;;;;;5040464;28;20539;-61
2023/08/13 00:38:31;;;;;;;4.27;2.90;;;24.50;86.60;;;;;;5037716;28;20559;-60
2023/08/13 00:40:58;;;;;;;2.90;2.70;;;24.40;86.80;;;;;;5038969;28;20265;-60
2023/08/13 00:43:25;;;;;;;3.73;3.30;;;24.50;86.90;;;;;;5046939;28;20248;-61
2023/08/13 00:45:52;;;;;;;3.70;2.60;;;24.40;87.00;;;;;;5040202;28;20212;-61
2023/08/13 00:48:20;;;;;;;3.50;2.80;;;24.40;87.10;;;;;;5038866;28;20219;-61
2023/08/13 00:50:47;;;;;;;5.10;2.80;;;24.40;87.20;;;;;;5043060;28;20711;-61
2023/08/13 00:53:15;;;;;;;3.57;3.23;;;24.40;87.30;;;;;;5041329;28;20268;-61
2023/08/13 00:55:43;;;;;;;4.57;3.27;;;24.40;87.30;;;;;;5040685;28;20206;-61
2023/08/13 00:58:10;;;;;;;3.03;2.73;;;24.40;87.50;;;;;;5039639;28;20286;-60
2023/08/13 01:00:38;;;;;;;5.83;3.20;;;24.40;87.60;;;;;;5043098;28;20236;-61
2023/08/13 01:03:05;;;;;;;3.87;3.10;;;24.40;87.70;;;;;;5044520;28;20212;-60
2023/08/13 01:06:00;;;;;;;3.20;3.00;;;24.40;87.80;;;;;;5007892;28;20282;-60
2023/08/13 01:08:36;;;;;;;3.63;3.33;;;24.40;87.90;;;;;;5004704;28;20227;-60
2023/08/13 01:11:21;;;;;;;3.67;3.37;;;24.30;87.90;;;;;;5003261;28;20205;-60
2023/08/13 01:14:20;;;;;;;3.10;2.90;;;24.30;88.10;;;;;;5003629;28;20708;-61
2023/08/13 01:16:48;;;;;;;3.30;3.00;;;24.30;88.20;;;;;;5011536;28;20279;-60
2023/08/13 01:19:16;;;;;;;3.30;3.00;;;24.20;88.20;;;;;;5002287;28;20668;-61
2023/08/13 01:21:43;;;;;;;5.23;3.50;;;24.20;88.40;;;;;;5005164;28;20208;-61
2023/08/13 01:24:10;;;;;;;8.87;3.20;;;24.20;88.60;;;;;;5002298;28;20265;-61
2023/08/13 01:26:48;;;;;;;4.23;3.80;;;24.10;88.70;;;;;;5004860;28;20705;-60
2023/08/13 01:29:26;;;;;;;5.67;3.50;;;24.10;88.90;;;;;;5002240;28;20319;-60
2023/08/13 01:31:58;;;;;;;3.80;3.27;;;24.10;89.10;;;;;;5001544;28;20299;-61
2023/08/13 01:34:25;;;;;;;4.40;3.60;;;24.10;89.10;;;;;;5009356;28;20198;-61
2023/08/13 01:36:53;;;;;;;4.33;3.50;;;24.10;89.10;;;;;;5002102;28;20196;-61
2023/08/13 01:39:20;;;;;;;4.13;3.30;;;24.10;89.10;;;;;;5004314;28;20210;-61
2023/08/13 01:41:53;;;;;;;4.73;3.60;;;24.10;89.10;;;;;;5009359;28;20218;-61
2023/08/13 01:44:21;;;;;;;5.17;3.70;;;24.00;89.10;;;;;;5002977;28;20234;-60
2023/08/13 01:46:48;;;;;;;5.23;3.80;;;24.00;89.30;;;;;;5019612;28;20237;-60
2023/08/13 01:49:15;;;;;;;5.17;3.73;;;24.00;89.60;;;;;;5005468;28;20208;-61
2023/08/13 01:51:42;;;;;;;6.57;4.30;;;23.90;89.70;;;;;;4998635;28;20200;-60
2023/08/13 01:54:09;;;;;;;10.23;4.53;;;23.90;90.00;;;;;;4999841;28;20192;-61
2023/08/13 01:56:36;;;;;;;4.20;3.87;;;23.90;90.00;;;;;;5002843;28;20208;-60
2023/08/13 01:59:03;;;;;;;10.43;3.70;;;23.90;90.00;;;;;;5000336;28;20236;-60
2023/08/13 02:01:30;;;;;;;5.87;4.03;;;23.80;90.10;;;;;;5003422;28;20259;-60
2023/08/13 02:03:57;;;;;;;6.00;4.57;;;23.80;90.10;;;;;;5017601;28;20690;-60
2023/08/13 02:06:24;;;;;;;7.30;4.20;;;23.80;90.20;;;;;;5043042;28;20214;-61
2023/08/13 02:08:51;;;;;;;7.47;4.00;;;23.80;90.40;;;;;;5047397;28;20280;-61
2023/08/13 02:11:20;;;;;;;9.43;5.07;;;23.70;90.40;;;;;;5040417;28;20559;-61
2023/08/13 02:13:47;;;;;;;7.33;3.77;;;23.70;90.40;;;;;;5042744;28;20233;-60
2023/08/13 02:16:14;;;;;;;5.93;4.40;;;23.70;90.50;;;;;;5049138;28;20203;-61
2023/08/13 02:18:41;;;;;;;4.50;4.03;;;23.70;90.60;;;;;;5037154;28;20203;-61
2023/08/13 02:21:08;;;;;;;4.63;3.70;;;23.70;90.60;;;;;;5042168;28;20309;-60
2023/08/13 02:23:35;;;;;;;3.57;3.33;;;23.70;90.60;;;;;;5042390;28;20207;-61
2023/08/13 02:26:02;;;;;;;3.93;3.40;;;23.70;90.70;;;;;;5038197;28;20207;-60
2023/08/13 02:28:29;;;;;;;4.03;3.60;;;23.70;90.70;;;;;;5044005;28;20227;-61
2023/08/13 02:30:56;;;;;;;7.07;3.73;;;23.70;90.70;;;;;;5040740;28;20211;-61
2023/08/13 02:33:23;;;;;;;5.17;3.80;;;23.70;90.70;;;;;;5044932;28;20612;-61
2023/08/13 02:35:50;;;;;;;5.77;4.00;;;23.70;90.80;;;;;;5041155;28;20199;-61
2023/08/13 02:38:18;;;;;;;3.97;3.53;;;23.70;90.80;;;;;;5038722;28;20650;-60
2023/08/13 02:40:45;;;;;;;4.73;3.40;;;23.60;90.90;;;;;;5041715;28;20293;-61
2023/08/13 02:43:12;;;;;;;4.20;3.80;;;23.60;91.00;;;;;;5038897;28;20673;-61
2023/08/13 02:45:39;;;;;;;5.53;3.50;;;23.60;91.10;;;;;;5042611;28;20628;-61
2023/08/13 02:48:06;;;;;;;4.23;3.73;;;23.60;91.10;;;;;;5042726;28;20199;-60
2023/08/13 02:50:33;;;;;;;7.20;3.90;;;23.50;91.20;;;;;;5040872;28;20600;-61
2023/08/13 02:53:00;;;;;;;3.97;3.50;;;23.50;91.20;;;;;;5040357;28;20202;-60
2023/08/13 02:55:28;;;;;;;5.33;4.47;;;23.40;91.20;;;;;;5041765;28;20535;-61
2023/08/13 02:57:55;;;;;;;6.00;4.10;;;23.40;91.30;;;;;;5040641;28;20202;-60
2023/08/13 03:00:35;;;;;;;4.50;4.07;;;23.40;91.40;;;;;;5044480;28;20306;-60
2023/08/13 03:03:03;;;;;;;5.37;3.57;;;23.40;91.40;;;;;;5048803;28;20214;-61
2023/08/13 03:05:32;;;;;;;4.10;3.77;;;23.40;91.50;;;;;;5041039;28;20250;-60
2023/08/13 03:07:59;;;;;;;7.40;3.90;;;23.40;91.50;;;;;;5038497;28;20203;-60
2023/08/13 03:10:26;;;;;;;6.97;4.87;;;23.30;91.50;;;;;;5045964;28;20199;-60
2023/08/13 03:12:53;;;;;;;6.57;4.23;;;23.30;91.60;;;;;;5037796;28;20261;-61
2023/08/13 03:15:20;;;;;;;6.03;4.30;;;23.30;91.70;;;;;;5043058;28;20202;-60
2023/08/13 03:17:47;;;;;;;5.13;3.57;;;23.30;91.60;;;;;;5039885;28;20636;-60
2023/08/13 03:20:15;;;;;;;6.13;3.67;;;23.20;91.50;;;;;;5037957;28;20622;-60
2023/08/13 03:22:42;;;;;;;5.30;4.80;;;23.20;91.60;;;;;;5042178;28;20213;-61
2023/08/13 03:25:09;;;;;;;5.03;4.53;;;23.20;91.60;;;;;;5040252;28;20214;-61
2023/08/13 03:27:37;;;;;;;4.57;4.17;;;23.10;91.70;;;;;;5040485;28;20519;-61
2023/08/13 03:30:08;;;;;;;5.30;3.90;;;23.10;91.80;;;;;;5038949;28;20609;-61
2023/08/13 03:32:36;;;;;;;4.77;4.13;;;23.10;91.90;;;;;;5041042;28;20257;-61
2023/08/13 03:35:03;;;;;;;4.47;4.07;;;23.10;92.00;;;;;;5037189;28;20286;-60
2023/08/13 03:37:31;;;;;;;4.70;4.30;;;23.10;92.00;;;;;;5048559;28;20201;-61
2023/08/13 03:39:58;;;;;;;3.90;3.60;;;23.10;92.00;;;;;;5037046;28;20309;-60
2023/08/13 03:42:25;;;;;;;3.63;3.33;;;23.10;92.10;;;;;;5040495;28;20207;-61
2023/08/13 03:44:52;;;;;;;6.77;4.63;;;23.10;92.10;;;;;;5036693;28;20663;-61
2023/08/13 03:47:19;;;;;;;5.80;4.47;;;23.10;92.20;;;;;;5048360;28;20203;-61
2023/08/13 03:49:47;;;;;;;5.30;4.07;;;23.10;92.20;;;;;;5040010;28;20223;-61
2023/08/13 03:52:14;;;;;;;4.70;4.30;;;23.10;92.20;;;;;;5037752;28;20187;-61
2023/08/13 03:54:41;;;;;;;6.20;4.37;;;23.10;92.10;;;;;;5038957;28;20652;-61
2023/08/13 03:57:08;;;;;;;4.33;3.93;;;23.00;92.20;;;;;;5047860;28;20621;-61
2023/08/13 03:59:35;;;;;;;4.93;4.43;;;23.00;92.20;;;;;;5044042;28;20231;-61
2023/08/13 04:02:03;;;;;;;5.93;4.70;;;23.00;92.20;;;;;;5044573;28;20218;-60
2023/08/13 04:04:30;;;;;;;5.77;4.00;;;23.00;92.20;;;;;;5043776;28;20632;-61
2023/08/13 04:06:58;;;;;;;6.00;4.93;;;23.00;92.20;;;;;;5044659;28;20203;-61
2023/08/13 04:09:25;;;;;;;5.57;3.93;;;23.00;92.20;;;;;;5040784;28;20288;-61
2023/08/13 04:11:52;;;;;;;6.70;4.27;;;22.90;92.20;;;;;;5050380;28;20643;-60
2023/08/13 04:14:19;;;;;;;5.37;4.33;;;22.90;92.30;;;;;;5041647;28;20594;-61
2023/08/13 04:16:46;;;;;;;4.67;4.27;;;22.90;92.40;;;;;;5048426;28;20229;-60
2023/08/13 04:19:13;;;;;;;5.47;4.83;;;22.90;92.50;;;;;;5048033;28;20195;-60
2023/08/13 04:21:41;;;;;;;4.53;4.00;;;22.80;92.50;;;;;;5052037;28;20214;-61
2023/08/13 04:24:10;;;;;;;6.50;4.40;;;22.90;92.60;;;;;;5042956;28;20298;-61
2023/08/13 04:26:37;;;;;;;5.90;4.80;;;22.90;92.60;;;;;;5039413;28;20209;-61
2023/08/13 04:29:07;;;;;;;5.87;4.57;;;22.90;92.70;;;;;;5044729;28;20253;-61
2023/08/13 04:31:36;;;;;;;6.27;4.63;;;22.90;92.80;;;;;;5046375;28;20633;-61
2023/08/13 04:34:03;;;;;;;6.70;5.27;;;22.90;92.90;;;;;;5042895;28;20652;-61
2023/08/13 04:36:30;;;;;;;5.30;4.90;;;22.90;92.90;;;;;;5043360;28;20207;-60
2023/08/13 04:38:57;;;;;;;4.60;4.20;;;22.90;93.00;;;;;;5046252;28;20285;-60
2023/08/13 04:41:25;;;;;;;5.80;4.90;;;22.90;93.10;;;;;;5045114;28;20211;-60
2023/08/13 04:43:52;;;;;;;5.63;4.43;;;22.90;93.10;;;;;;5040806;28;20199;-60
2023/08/13 04:46:19;;;;;;;4.80;4.30;;;22.90;93.00;;;;;;5044940;28;20202;-61
2023/08/13 04:48:54;;;;;;;5.03;4.53;;;22.90;93.00;;;;;;5044482;28;20545;-60
2023/08/13 04:51:24;;;;;;;4.47;4.17;;;22.90;93.10;;;;;;5041474;28;20290;-61
2023/08/13 04:53:51;;;;;;;5.40;5.00;;;22.90;93.20;;;;;;5049748;28;20202;-61
2023/08/13 04:56:19;;;;;;;5.07;4.33;;;22.90;93.40;;;;;;5042772;28;20207;-60
2023/08/13 04:58:47;;;;;;;7.70;5.13;;;22.90;93.40;;;;;;5041579;28;20195;-60
2023/08/13 05:01:15;;;;;;;9.33;6.87;;;22.90;93.50;;;;;;5039396;28;20211;-61
2023/08/13 05:03:47;;;;;;;7.63;5.83;;;23.00;93.60;;;;;;5043022;28;20292;-61
2023/08/13 05:06:14;;;;;;;7.83;5.40;;;23.10;93.60;;;;;;5038431;28;20609;-61
2023/08/13 05:08:41;;;;;;;5.97;5.07;;;23.10;93.60;;;;;;5041925;28;20294;-61
2023/08/13 05:11:09;;;;;;;5.53;5.00;;;23.10;93.70;;;;;;5043653;28;20207;-61
2023/08/13 05:13:37;;;;;;;6.63;5.87;;;23.20;93.70;;;;;;5035477;28;20199;-61
2023/08/13 05:16:04;;;;;;;8.23;5.70;;;23.20;93.60;;;;;;5046062;28;20277;-61
2023/08/13 05:18:32;;;;;;;5.10;4.43;;;23.30;93.60;;;;;;5042626;28;20238;-61
2023/08/13 05:20:59;;;;;;;7.20;6.50;;;23.40;93.70;;;;;;5048931;28;20529;-61
2023/08/13 05:23:26;;;;;;;5.83;5.33;;;23.40;93.60;;;;;;5043370;28;20207;-61
2023/08/13 05:25:54;;;;;;;6.03;5.17;;;23.40;93.60;;;;;;5040989;28;20571;-61
2023/08/13 05:28:21;;;;;;;9.63;6.60;;;23.60;93.70;;;;;;5040301;28;20194;-61
2023/08/13 05:30:49;;;;;;;11.43;6.23;;;23.60;93.60;;;;;;5041271;28;20226;-61
2023/08/13 05:33:16;;;;;;;5.27;4.83;;;23.70;93.60;;;;;;5043749;28;20294;-61
2023/08/13 05:35:44;;;;;;;6.37;5.77;;;23.80;93.50;;;;;;5043560;28;20237;-60
2023/08/13 05:38:11;;;;;;;7.13;4.97;;;23.90;93.50;;;;;;5045815;28;20207;-61
2023/08/13 05:40:38;;;;;;;6.43;5.37;;;24.00;93.50;;;;;;5043830;28;20198;-60
2023/08/13 05:43:05;;;;;;;6.40;5.33;;;24.10;93.40;;;;;;5044566;28;20211;-60
2023/08/13 05:45:33;;;;;;;5.60;5.10;;;24.20;93.40;;;;;;5041027;28;20669;-61
2023/08/13 05:48:00;;;;;;;7.73;5.70;;;24.30;93.30;;;;;;5045039;28;20218;-61
2023/08/13 05:50:29;;;;;;;7.20;5.60;;;24.30;93.20;;;;;;5043941;28;20640;-61
2023/08/13 05:52:56;;;;;;;7.10;5.10;;;24.50;93.20;;;;;;5041885;28;20289;-61
2023/08/13 05:55:23;;;;;;;5.67;4.90;;;24.60;93.10;;;;;;5044155;28;20651;-61
2023/08/13 05:57:50;;;;;;;7.97;6.27;;;24.70;93.00;;;;;;5040922;28;20210;-61
2023/08/13 06:00:17;;;;;;;9.57;7.27;;;24.80;92.80;;;;;;5043748;28;20209;-60
2023/08/13 06:02:44;;;;;;;11.00;6.50;;;25.00;92.50;;;;;;5040983;28;20627;-61
2023/08/13 06:05:11;;;;;;;7.23;6.53;;;25.10;92.30;;;;;;5043378;28;20252;-61
2023/08/13 06:07:39;;;;;;;6.47;5.87;;;25.20;92.10;;;;;;5041147;28;20205;-61
2023/08/13 06:10:06;;;;;;;7.90;6.47;;;25.40;91.90;;;;;;5040789;28;20240;-61
2023/08/13 06:12:34;;;;;;;6.53;5.90;;;25.50;91.70;;;;;;5039336;28;20217;-61
2023/08/13 06:15:01;;;;;;;6.60;6.00;;;25.60;91.40;;;;;;5035963;28;20215;-61
2023/08/13 06:17:28;;;;;;;10.00;6.20;;;25.80;91.20;;;;;;5038835;28;20229;-61
2023/08/13 06:19:55;;;;;;;8.10;6.10;;;25.90;90.90;;;;;;5040106;28;20226;-61
2023/08/13 06:22:22;;;;;;;6.77;5.93;;;26.00;90.80;;;;;;5042689;28;20207;-61
2023/08/13 06:24:49;;;;;;;7.00;6.30;;;26.10;90.60;;;;;;5038508;28;20213;-60
2023/08/13 06:27:16;;;;;;;7.00;6.10;;;26.10;90.50;;;;;;5039055;28;20202;-61
2023/08/13 06:29:43;;;;;;;6.30;5.20;;;26.30;90.50;;;;;;5044288;28;20731;-61
2023/08/13 06:32:30;;;;;;;7.27;5.83;;;26.40;90.30;;;;;;5038327;28;20203;-61
2023/08/13 06:34:57;;;;;;;6.00;5.40;;;26.60;90.00;;;;;;5047532;28;20645;-61
2023/08/13 06:37:24;;;;;;;10.30;5.70;;;26.70;89.50;;;;;;5042722;28;20272;-61
2023/08/13 06:39:51;;;;;;;5.60;5.00;;;26.90;89.00;;;;;;5035986;28;20234;-60
2023/08/13 06:42:18;;;;;;;5.50;5.00;;;27.00;88.50;;;;;;5037803;28;20195;-61
2023/08/13 06:44:46;;;;;;;6.57;4.50;;;27.20;88.00;;;;;;5037961;28;20221;-61
2023/08/13 06:47:13;;;;;;;6.17;4.93;;;27.30;87.10;;;;;;5036904;28;20206;-61
2023/08/13 06:49:40;;;;;;;5.40;4.50;;;27.50;86.70;;;;;;5039433;28;20215;-61
2023/08/13 06:52:07;;;;;;;5.17;4.73;;;27.60;85.80;;;;;;5039721;28;20552;-61
2023/08/13 06:54:34;;;;;;;6.03;5.43;;;27.80;85.20;;;;;;5036957;28;20264;-61
2023/08/13 06:57:01;;;;;;;11.17;4.67;;;27.90;84.50;;;;;;5038959;28;20210;-61
2023/08/13 06:59:29;;;;;;;5.03;4.50;;;28.00;84.10;;;;;;5041289;28;20625;-61
2023/08/13 07:01:56;;;;;;;5.10;4.17;;;28.20;83.70;;;;;;5041629;28;20285;-60
2023/08/13 07:04:23;;;;;;;8.27;4.60;;;28.30;83.30;;;;;;5040395;28;20692;-61
2023/08/13 07:06:50;;;;;;;4.77;4.30;;;28.40;82.80;;;;;;5039513;28;20615;-61
2023/08/13 07:09:17;;;;;;;7.60;4.30;;;28.50;82.10;;;;;;5041706;28;20256;-61
2023/08/13 07:11:44;;;;;;;7.30;4.33;;;28.60;81.40;;;;;;5040452;28;20206;-61
2023/08/13 07:14:11;;;;;;;4.40;4.00;;;28.80;80.80;;;;;;5039242;28;20686;-61
2023/08/13 07:16:38;;;;;;;4.50;3.40;;;28.90;79.90;;;;;;5043016;28;20234;-61
2023/08/13 07:19:06;;;;;;;5.27;4.27;;;29.10;79.10;;;;;;5042811;28;20203;-61
2023/08/13 07:21:34;;;;;;;7.37;4.53;;;29.10;78.00;;;;;;5041371;28;20279;-61
2023/08/13 07:24:02;;;;;;;6.20;4.37;;;29.20;76.90;;;;;;5038339;28;20215;-61
2023/08/13 07:26:30;;;;;;;6.90;5.00;;;29.20;76.10;;;;;;5043298;28;20218;-60
2023/08/13 07:28:57;;;;;;;4.20;3.80;;;29.10;76.30;;;;;;5042812;28;20199;-61
2023/08/13 07:31:24;;;;;;;6.07;4.20;;;29.10;75.50;;;;;;5045890;28;20293;-60
2023/08/13 07:33:53;;;;;;;5.03;4.63;;;29.10;76.10;;;;;;5049297;28;20613;-61
2023/08/13 07:36:20;;;;;;;5.97;3.60;;;29.10;75.70;;;;;;5043150;28;20195;-61
2023/08/13 07:38:48;;;;;;;5.43;3.40;;;29.10;76.20;;;;;;5043562;28;20215;-61
2023/08/13 07:41:14;;;;;;;7.80;4.27;;;29.20;76.20;;;;;;5043128;28;20198;-61
2023/08/13 07:43:41;;;;;;;4.80;3.67;;;29.30;75.00;;;;;;5041498;28;20696;-61
2023/08/13 07:46:08;;;;;;;4.40;3.70;;;29.40;75.00;;;;;;5044273;28;20222;-61
2023/08/13 07:48:35;;;;;;;6.67;3.57;;;29.50;75.20;;;;;;5040947;28;20660;-61
2023/08/13 07:51:02;;;;;;;6.13;3.40;;;29.60;75.20;;;;;;5046630;28;20207;-61
2023/08/13 07:53:31;;;;;;;3.57;3.27;;;29.70;74.40;;;;;;5040249;28;20609;-61
2023/08/13 07:55:58;;;;;;;3.20;2.93;;;29.80;74.00;;;;;;5040566;28;20222;-61
2023/08/13 07:58:25;;;;;;;4.37;3.00;;;29.90;72.60;;;;;;5047901;28;20671;-61
2023/08/13 08:00:53;;;;;;;3.90;3.10;;;29.90;72.10;;;;;;5039977;28;20285;-61
2023/08/13 08:03:20;;;;;;;7.50;3.43;;;30.10;72.40;;;;;;5045757;28;20203;-61
2023/08/13 08:05:49;;;;;;;8.60;2.97;;;30.30;72.20;;;;;;5042040;28;20210;-61
2023/08/13 08:08:16;;;;;;;4.97;3.03;;;30.50;71.50;;;;;;5037541;28;20203;-61
2023/08/13 08:10:43;;;;;;;3.63;3.07;;;30.60;71.20;;;;;;5039281;28;20211;-61
2023/08/13 08:13:10;;;;;;;3.13;2.83;;;30.70;70.60;;;;;;5043573;28;20662;-61
2023/08/13 08:15:37;;;;;;;3.53;2.97;;;30.90;69.70;;;;;;5040689;28;20199;-61
2023/08/13 08:18:04;;;;;;;3.90;3.50;;;31.00;68.60;;;;;;5036956;28;20245;-61
2023/08/13 08:20:32;;;;;;;42.13;37.70;;;31.10;68.10;;;;;;5047455;28;20198;-61
2023/08/13 08:23:00;;;;;;;5.27;4.70;;;31.10;67.80;;;;;;5041319;28;20674;-61
2023/08/13 08:25:27;;;;;;;3.73;3.37;;;31.10;68.50;;;;;;5041397;28;20225;-61
2023/08/13 08:27:54;;;;;;;4.23;2.70;;;31.20;68.50;;;;;;5043219;28;20636;-61
2023/08/13 08:30:22;;;;;;;4.40;3.10;;;31.40;67.60;;;;;;5040860;28;20285;-61
2023/08/13 08:32:49;;;;;;;3.50;3.20;;;31.60;67.40;;;;;;5040959;28;20622;-61
2023/08/13 08:35:16;;;;;;;8.77;3.27;;;31.70;66.90;;;;;;5043925;28;20527;-61
2023/08/13 08:37:44;;;;;;;5.77;3.10;;;31.80;66.70;;;;;;5049008;28;20214;-61
2023/08/13 08:40:11;;;;;;;4.60;3.00;;;31.90;66.80;;;;;;5041043;28;20225;-61
2023/08/13 08:42:41;;;;;;;3.20;2.70;;;32.00;65.60;;;;;;5045333;28;20313;-61
2023/08/13 08:45:10;;;;;;;2.93;2.47;;;32.10;64.10;;;;;;5039752;28;20207;-61
2023/08/13 08:47:40;;;;;;;3.30;2.87;;;32.10;64.10;;;;;;5039660;28;20202;-61
2023/08/13 08:50:11;;;;;;;3.10;2.90;;;32.20;64.00;;;;;;5043745;28;20486;-61
2023/08/13 08:52:39;;;;;;;3.80;2.80;;;32.30;62.20;;;;;;5043776;28;20199;-61
2023/08/13 08:55:09;;;;;;;3.20;3.00;;;32.30;62.20;;;;;;5040996;28;20203;-61
2023/08/13 08:57:36;;;;;;;6.13;3.00;;;32.30;61.10;;;;;;5043460;28;20211;-61
2023/08/13 09:00:04;;;;;;;5.37;2.47;;;32.30;61.90;;;;;;5042055;28;20211;-61
2023/08/13 09:02:31;;;;;;;3.13;2.80;;;32.30;62.10;;;;;;5047144;28;20624;-62
2023/08/13 09:04:58;;;;;;;3.57;3.13;;;32.30;62.10;;;;;;5044353;28;20234;-61
2023/08/13 09:07:30;;;;;;;4.23;2.87;;;32.40;62.50;;;;;;5041169;28;20203;-61
2023/08/13 09:09:58;;;;;;;3.33;2.80;;;32.50;61.00;;;;;;5046710;28;20309;-61
2023/08/13 09:12:25;;;;;;;3.63;2.77;;;32.50;61.20;;;;;;5042016;28;20257;-61
2023/08/13 09:14:54;;;;;;;3.20;2.90;;;32.70;61.00;;;;;;5043335;28;20206;-61
2023/08/13 09:17:24;;;;;;;3.27;2.93;;;32.80;59.50;;;;;;5043628;28;20572;-61
2023/08/13 09:19:51;;;;;;;5.57;3.40;;;32.80;59.00;;;;;;5039014;28;20348;-61
2023/08/13 09:22:18;;;;;;;3.20;2.90;;;32.90;57.90;;;;;;5042511;28;20217;-61
2023/08/13 09:24:46;;;;;;;4.47;3.03;;;32.90;57.50;;;;;;5039702;28;20210;-60
2023/08/13 09:27:14;;;;;;;3.80;3.00;;;33.00;58.50;;;;;;5037235;28;20199;-60
2023/08/13 09:29:42;;;;;;;3.60;2.63;;;33.10;58.80;;;;;;5041389;28;20211;-61
2023/08/13 09:32:09;;;;;;;3.23;2.93;;;33.20;59.40;;;;;;5039244;28;20278;-61
2023/08/13 09:34:36;;;;;;;4.13;2.60;;;33.30;58.80;;;;;;5041837;28;20260;-60
2023/08/13 09:37:03;;;;;;;5.47;2.93;;;33.50;59.10;;;;;;5039997;28;20289;-60
2023/08/13 09:39:31;;;;;;;4.10;3.03;;;33.60;58.40;;;;;;5034511;28;20202;-60
2023/08/13 09:42:00;;;;;;;3.93;3.10;;;33.70;58.20;;;;;;5035777;28;20209;-61
2023/08/13 09:44:29;;;;;;;3.37;2.97;;;33.80;58.50;;;;;;5036946;28;20211;-60
2023/08/13 09:47:01;;;;;;;3.57;3.20;;;33.90;57.90;;;;;;5035916;28;20211;-61
2023/08/13 09:49:30;;;;;;;3.30;3.00;;;34.00;58.00;;;;;;5041873;28;20574;-60
2023/08/13 09:52:09;;;;;;;3.65;3.15;;;34.10;58.10;;;;;;5037312;28;20210;-60
2023/08/13 09:54:46;;;;;;;5.93;3.63;;;34.30;57.60;;;;;;5038006;28;20219;-61
2023/08/13 09:57:15;;;;;;;4.53;3.37;;;34.30;56.70;;;;;;5045062;28;20206;-60
2023/08/13 09:59:44;;;;;;;3.13;2.83;;;34.30;56.60;;;;;;5039818;28;20223;-60
2023/08/13 10:02:13;;;;;;;5.13;3.70;;;34.40;56.90;;;;;;5038784;28;20217;-60
2023/08/13 10:04:41;;;;;;;2.95;2.75;;;34.40;56.50;;;;;;5045025;28;21229;-60
2023/08/13 10:07:08;;;;;;;3.83;3.13;;;34.50;55.80;;;;;;5038189;28;20283;-60
2023/08/13 10:09:37;;;;;;;6.27;3.50;;;34.50;56.10;;;;;;5039055;28;20667;-61
2023/08/13 10:12:09;;;;;;;3.50;3.20;;;34.60;55.60;;;;;;5043800;28;20226;-60
2023/08/13 10:14:37;;;;;;;3.97;3.60;;;34.60;55.50;;;;;;5041447;28;20253;-60
2023/08/13 10:17:06;;;;;;;4.57;3.60;;;34.70;55.30;;;;;;5042008;28;20209;-60
2023/08/13 10:19:45;;;;;;;4.00;3.53;;;34.80;54.50;;;;;;5043356;28;20289;-60
2023/08/13 10:22:12;;;;;;;6.63;3.60;;;34.70;54.40;;;;;;5043884;28;20216;-61
2023/08/13 10:24:43;;;;;;;5.30;3.72;;;34.70;55.80;;;;;;5041241;28;20218;-61
2023/08/13 10:27:13;;;;;;;5.28;3.33;;;34.70;55.60;;;;;;5041981;28;20585;-61
2023/08/13 10:29:43;;;;;;;8.82;4.18;;;34.70;55.60;;;;;;5041222;28;20302;-60
2023/08/13 10:32:15;;;;;;;3.75;3.42;;;34.80;55.60;;;;;;5042211;28;20219;-60
2023/08/13 10:34:50;;;;;;;5.50;3.20;;;34.80;55.20;;;;;;5044383;28;20260;-60
2023/08/13 10:37:19;;;;;;;3.93;3.37;;;34.80;55.20;;;;;;5039446;28;20205;-60
2023/08/13 10:40:02;;;;;;;4.40;3.90;;;34.90;55.30;;;;;;5041570;28;20228;-60
2023/08/13 10:42:31;;;;;;;3.90;3.23;;;35.00;55.20;;;;;;5040588;28;20196;-60
2023/08/13 10:45:06;;;;;;;4.72;3.50;;;35.00;54.70;;;;;;5040058;28;20624;-60
2023/08/13 10:47:49;;;;;;;4.40;3.30;;;35.10;54.80;;;;;;5041389;28;20203;-61
2023/08/13 10:50:30;;;;;;;4.10;3.58;;;35.10;55.00;;;;;;5038920;28;20277;-61
2023/08/13 10:53:04;;;;;;;3.45;3.20;;;35.20;55.00;;;;;;5040135;28;20198;-61
2023/08/13 10:55:34;;;;;;;6.22;3.40;;;35.30;55.10;;;;;;5039633;28;20232;-61
2023/08/13 10:58:01;;;;;;;3.50;3.30;;;35.40;54.60;;;;;;5042353;28;20203;-60
2023/08/13 11:00:29;;;;;;;3.80;3.50;;;35.40;53.90;;;;;;5037688;28;20293;-60
2023/08/13 11:03:21;;;;;;;5.15;3.53;;;35.30;53.70;;;;;;5040930;28;20203;-60
2023/08/13 11:05:50;;;;;;;4.20;3.58;;;35.20;54.50;;;;;;5038234;28;20237;-61
2023/08/13 11:08:22;;;;;;;4.05;3.63;;;35.10;53.90;;;;;;5043772;28;20203;-60
2023/08/13 11:11:07;;;;;;;4.15;3.83;;;35.10;53.10;;;;;;5038007;28;20222;-60
2023/08/13 11:13:35;;;;;;;3.95;3.53;;;34.90;53.10;;;;;;5040117;28;20640;-60
2023/08/13 11:16:03;;;;;;;4.20;3.70;;;34.80;54.30;;;;;;5038163;28;20581;-61
2023/08/13 11:18:30;;;;;;;4.72;3.70;;;34.80;54.30;;;;;;5039353;28;20199;-60
2023/08/13 11:20:57;;;;;;;4.68;3.50;;;34.70;54.10;;;;;;5040805;28;20286;-60
2023/08/13 11:23:25;;;;;;;4.40;4.00;;;34.70;54.50;;;;;;5044232;28;20200;-60
2023/08/13 11:25:52;;;;;;;4.27;3.87;;;34.80;55.30;;;;;;5044967;28;20203;-60
2023/08/13 11:28:20;;;;;;;4.07;3.63;;;34.90;54.90;;;;;;5043159;28;20645;-60
2023/08/13 11:30:48;;;;;;;6.03;3.80;;;35.00;55.00;;;;;;5040731;28;20652;-61
2023/08/13 11:33:15;;;;;;;3.60;3.35;;;35.20;54.50;;;;;;5049770;28;20212;-60
2023/08/13 11:35:42;;;;;;;4.10;3.78;;;35.20;54.20;;;;;;5041848;28;20206;-61
2023/08/13 11:38:09;;;;;;;3.60;3.30;;;35.30;54.50;;;;;;5045232;28;20215;-60
2023/08/13 11:40:37;;;;;;;4.32;3.60;;;35.30;54.00;;;;;;5046408;28;20556;-61
2023/08/13 11:43:09;;;;;;;4.53;3.78;;;35.40;54.30;;;;;;5040541;28;20225;-60
2023/08/13 11:45:38;;;;;;;5.60;3.55;;;35.40;53.60;;;;;;5047197;28;20203;-60
2023/08/13 11:48:21;;;;;;;4.13;3.83;;;35.40;53.70;;;;;;5048161;28;20195;-60
2023/08/13 11:50:57;;;;;;;6.03;3.50;;;35.40;54.10;;;;;;5044532;28;20218;-60
2023/08/13 11:53:45;;;;;;;3.78;3.47;;;35.30;53.90;;;;;;5044417;28;20235;-60
2023/08/13 11:56:13;;;;;;;4.40;3.70;;;35.30;54.00;;;;;;5045038;28;20203;-61
2023/08/13 11:58:41;;;;;;;6.70;3.60;;;35.40;53.80;;;;;;5045390;28;20578;-61
2023/08/13 12:01:13;;;;;;;4.15;3.70;;;35.40;54.40;;;;;;5045141;28;20218;-61
2023/08/13 12:03:42;;;;;;;3.53;3.22;;;35.50;53.60;;;;;;5045189;28;20210;-60
2023/08/13 12:06:11;;;;;;;3.97;3.65;;;35.60;53.60;;;;;;5045364;28;20213;-60
2023/08/13 12:08:45;;;;;;;4.22;3.80;;;35.70;53.90;;;;;;5047109;28;20206;-60
2023/08/13 12:11:12;;;;;;;5.93;3.67;;;35.70;53.90;;;;;;5042455;28;20211;-60
2023/08/13 12:13:42;;;;;;;8.07;4.35;;;35.60;53.60;;;;;;5044894;28;20203;-60
2023/08/13 12:16:09;;;;;;;3.67;3.38;;;35.60;53.00;;;;;;5041062;28;20191;-60
2023/08/13 12:18:37;;;;;;;5.25;3.40;;;35.60;53.60;;;;;;5040553;28;20640;-60
2023/08/13 12:21:03;;;;;;;4.20;3.30;;;35.60;53.20;;;;;;5042825;28;20212;-60
2023/08/13 12:23:31;;;;;;;4.75;3.40;;;35.70;53.10;;;;;;5045993;28;20281;-60
2023/08/13 12:26:01;;;;;;;4.45;3.90;;;35.70;52.00;;;;;;5039954;28;20211;-60
2023/08/13 12:28:29;;;;;;;3.85;3.65;;;35.50;52.00;;;;;;5042988;28;20206;-60
2023/08/13 12:30:56;;;;;;;5.05;3.30;;;35.40;52.60;;;;;;5037561;28;20569;-60
2023/08/13 12:33:23;;;;;;;3.97;3.50;;;35.30;53.10;;;;;;5044418;28;20202;-60
2023/08/13 12:35:50;;;;;;;4.38;3.80;;;35.30;53.40;;;;;;5041157;28;20187;-60
2023/08/13 12:38:17;;;;;;;3.65;3.35;;;35.20;53.10;;;;;;5043490;28;20199;-60
2023/08/13 12:40:44;;;;;;;5.60;4.03;;;35.20;52.70;;;;;;5044730;28;20213;-60
2023/08/13 12:43:11;;;;;;;4.50;3.58;;;35.10;52.60;;;;;;5039051;28;20648;-60
2023/08/13 12:45:38;;;;;;;3.77;3.47;;;35.10;53.30;;;;;;5044754;28;20201;-60
2023/08/13 12:48:05;;;;;;;4.60;3.47;;;35.20;53.10;;;;;;5043454;28;20270;-60
2023/08/13 12:50:32;;;;;;;3.63;3.33;;;35.20;53.50;;;;;;5042969;28;20260;-60
2023/08/13 12:53:00;;;;;;;5.10;3.50;;;35.20;52.50;;;;;;5044575;28;20265;-60